createdAt,value
2023-03-31T00:01:54.370Z,5.68
2023-03-31T00:04:24.365Z,5.93
2023-03-31T00:06:54.637Z,4.32
2023-03-31T00:09:24.248Z,4.28
2023-03-31T00:11:53.131Z,4.50
2023-03-31T00:14:21.997Z,5.72
2023-03-31T00:16:50.088Z,5.75
2023-03-31T00:19:21.299Z,4.22
2023-03-31T00:21:51.666Z,5.40
2023-03-31T00:24:19.858Z,4.68
2023-03-31T00:26:49.441Z,4.68
2023-03-31T00:29:17.630Z,5.28
2023-03-31T00:31:45.833Z,4.15
2023-03-31T00:34:14.042Z,4.13
2023-03-31T00:36:45.952Z,5.45
2023-03-31T00:39:15.915Z,5.72
2023-03-31T00:41:44.048Z,5.53
2023-03-31T00:44:19.061Z,4.38
2023-03-31T00:46:53.819Z,4.72
2023-03-31T00:49:28.281Z,4.95
2023-03-31T00:52:00.501Z,4.85
2023-03-31T00:54:29.985Z,5.18
2023-03-31T00:57:03.604Z,4.82
2023-03-31T00:59:38.376Z,4.72
2023-03-31T01:02:07.475Z,5.63
2023-03-31T01:04:40.389Z,5.45
2023-03-31T01:07:16.945Z,5.20
2023-03-31T01:09:47.398Z,4.47
2023-03-31T01:12:18.977Z,4.20
2023-03-31T01:14:51.443Z,4.05
2023-03-31T01:17:22.375Z,4.03
2023-03-31T01:20:11.765Z,6.07
2023-03-31T01:23:16.662Z,5.65
2023-03-31T01:28:39.994Z,5.28
2023-03-31T01:31:40.067Z,4.53
2023-03-31T01:34:58.930Z,7.75
2023-03-31T01:38:08.100Z,5.00
2023-03-31T01:40:59.967Z,5.30
2023-03-31T01:43:34.778Z,4.57
2023-03-31T01:46:09.828Z,5.43
2023-03-31T01:48:48.884Z,5.90
2023-03-31T01:51:23.340Z,4.90
2023-03-31T01:53:56.913Z,4.90
2023-03-31T01:56:32.533Z,6.30
2023-03-31T01:59:04.638Z,6.05
2023-03-31T02:01:39.250Z,6.32
2023-03-31T02:04:14.722Z,6.47
2023-03-31T02:06:49.965Z,6.90
2023-03-31T02:09:22.841Z,5.63
2023-03-31T02:11:56.305Z,8.05
2023-03-31T02:14:29.998Z,6.78
2023-03-31T02:17:20.784Z,7.30
2023-03-31T02:19:52.897Z,6.40
2023-03-31T02:22:24.835Z,6.35
2023-03-31T02:24:54.822Z,7.18
2023-03-31T02:27:27.909Z,7.28
2023-03-31T02:29:57.154Z,6.82
2023-03-31T02:32:30.211Z,9.20
2023-03-31T02:35:01.042Z,7.00
2023-03-31T02:37:31.196Z,7.80
2023-03-31T02:40:02.554Z,8.18
2023-03-31T02:42:32.319Z,7.97
2023-03-31T02:45:03.612Z,9.90
2023-03-31T02:47:32.028Z,7.65
2023-03-31T02:50:02.934Z,8.65
2023-03-31T02:52:47.339Z,7.55
2023-03-31T02:55:30.765Z,7.75
2023-03-31T02:58:43.420Z,6.45
2023-03-31T03:01:27.191Z,6.00
2023-03-31T03:04:04.814Z,5.78
2023-03-31T03:06:43.801Z,9.00
2023-03-31T03:09:31.961Z,7.80
2023-03-31T03:12:10.173Z,5.95
2023-03-31T03:14:44.000Z,8.60
2023-03-31T03:17:18.074Z,7.80
2023-03-31T03:19:53.824Z,7.95
2023-03-31T03:22:22.507Z,7.03
2023-03-31T03:24:50.819Z,6.68
2023-03-31T03:27:19.065Z,8.25
2023-03-31T03:29:47.651Z,7.75
2023-03-31T03:32:17.260Z,7.47
2023-03-31T03:34:45.357Z,7.07
2023-03-31T03:37:13.367Z,7.00
2023-03-31T03:39:41.410Z,7.78
2023-03-31T03:42:09.619Z,6.50
2023-03-31T03:44:37.619Z,7.35
2023-03-31T03:47:06.023Z,9.60
2023-03-31T03:49:35.504Z,6.90
2023-03-31T03:52:03.893Z,7.78
2023-03-31T03:54:32.123Z,9.48
2023-03-31T03:57:00.504Z,6.43
2023-03-31T03:59:28.566Z,6.68
2023-03-31T04:01:56.695Z,6.18
2023-03-31T04:04:25.100Z,7.10
2023-03-31T04:06:54.418Z,8.48
2023-03-31T04:09:22.875Z,8.93
2023-03-31T04:11:50.984Z,7.63
2023-03-31T04:14:19.084Z,8.55
2023-03-31T04:16:48.523Z,8.60
2023-03-31T04:19:17.748Z,8.27
2023-03-31T04:21:46.207Z,7.63
2023-03-31T04:24:21.700Z,7.32
2023-03-31T04:26:50.911Z,8.30
2023-03-31T04:29:20.704Z,7.60
2023-03-31T04:31:50.840Z,8.68
2023-03-31T04:34:18.964Z,7.72
2023-03-31T04:36:48.299Z,7.30
2023-03-31T04:39:24.483Z,8.63
2023-03-31T04:41:52.691Z,8.82
2023-03-31T04:44:20.808Z,8.13
2023-03-31T04:46:48.922Z,7.88
2023-03-31T04:49:17.146Z,8.13
2023-03-31T04:51:45.340Z,7.97
2023-03-31T04:54:13.785Z,8.77
2023-03-31T04:56:43.444Z,8.63
2023-03-31T04:59:11.610Z,9.20
2023-03-31T05:01:39.639Z,8.32
2023-03-31T05:04:07.752Z,7.85
2023-03-31T05:06:35.863Z,7.40
2023-03-31T05:09:04.241Z,7.10
2023-03-31T05:11:32.368Z,7.95
2023-03-31T05:14:01.843Z,9.07
2023-03-31T05:16:29.920Z,7.40
2023-03-31T05:18:58.013Z,8.68
2023-03-31T05:21:26.905Z,7.88
2023-03-31T05:23:54.925Z,7.85
2023-03-31T05:26:25.118Z,7.15
2023-03-31T05:28:53.589Z,10.55
2023-03-31T05:31:23.468Z,13.82
2023-03-31T05:33:51.946Z,12.18
2023-03-31T05:36:20.055Z,12.98
2023-03-31T05:38:48.351Z,12.45
2023-03-31T05:41:17.076Z,11.70
2023-03-31T05:43:45.352Z,12.80
2023-03-31T05:46:14.044Z,10.70
2023-03-31T05:48:44.896Z,10.60
2023-03-31T05:51:12.992Z,11.32
2023-03-31T05:53:42.057Z,13.07
2023-03-31T05:56:10.855Z,11.57
2023-03-31T05:58:39.053Z,15.05
2023-03-31T06:01:10.084Z,12.93
2023-03-31T06:03:41.336Z,11.30
2023-03-31T06:06:13.176Z,11.93
2023-03-31T06:08:41.790Z,10.30
2023-03-31T06:11:12.208Z,10.65
2023-03-31T06:13:41.137Z,10.57
2023-03-31T06:16:11.148Z,10.70
2023-03-31T06:18:39.695Z,10.98
2023-03-31T06:21:08.783Z,12.45
2023-03-31T06:23:38.457Z,11.85
2023-03-31T06:26:08.618Z,10.60
2023-03-31T06:28:37.607Z,9.13
2023-03-31T06:31:08.384Z,11.50
2023-03-31T06:33:37.129Z,12.05
2023-03-31T06:36:06.902Z,10.32
2023-03-31T06:38:36.241Z,10.90
2023-03-31T06:41:06.460Z,12.13
2023-03-31T06:43:36.002Z,12.10
2023-03-31T06:46:04.844Z,13.43
2023-03-31T06:48:34.950Z,12.25
2023-03-31T06:51:08.330Z,12.40
2023-03-31T06:53:42.788Z,12.40
2023-03-31T06:56:18.231Z,13.57
2023-03-31T06:58:46.524Z,11.52
2023-03-31T07:01:24.989Z,10.93
2023-03-31T07:03:53.395Z,14.43
2023-03-31T07:06:35.285Z,12.38
2023-03-31T07:09:13.316Z,12.30
2023-03-31T07:11:46.119Z,11.75
2023-03-31T07:14:32.378Z,14.02
2023-03-31T07:17:04.344Z,13.27
2023-03-31T07:19:39.555Z,11.95
2023-03-31T07:22:20.534Z,12.52
2023-03-31T07:24:48.766Z,12.43
2023-03-31T07:27:19.253Z,12.13
2023-03-31T07:29:47.625Z,12.20
2023-03-31T07:32:16.145Z,13.55
2023-03-31T07:34:44.611Z,16.35
2023-03-31T07:37:12.736Z,13.20
2023-03-31T07:39:41.587Z,13.82
2023-03-31T07:42:10.112Z,13.90
2023-03-31T07:44:40.492Z,14.13
2023-03-31T07:47:08.813Z,12.32
2023-03-31T07:49:37.016Z,10.80
2023-03-31T07:52:05.920Z,14.57
2023-03-31T07:54:34.221Z,12.48
2023-03-31T07:57:03.393Z,13.70
2023-03-31T07:59:32.641Z,14.35
2023-03-31T08:02:02.311Z,15.00
2023-03-31T08:04:30.860Z,16.33
2023-03-31T08:06:59.195Z,15.88
2023-03-31T08:09:27.507Z,16.50
2023-03-31T08:11:55.648Z,15.00
2023-03-31T08:14:34.220Z,14.35
2023-03-31T08:17:10.619Z,15.38
2023-03-31T08:19:39.057Z,16.65
2023-03-31T08:22:07.189Z,15.10
2023-03-31T08:24:35.427Z,14.57
2023-03-31T08:27:03.488Z,12.30
2023-03-31T08:29:31.584Z,14.85
2023-03-31T08:31:59.674Z,13.32
2023-03-31T08:34:29.106Z,14.38
2023-03-31T08:36:57.224Z,14.25
2023-03-31T08:39:25.670Z,13.80
2023-03-31T08:41:59.296Z,12.65
2023-03-31T08:44:33.745Z,12.82
2023-03-31T08:47:04.137Z,13.45
2023-03-31T08:49:40.681Z,13.48
2023-03-31T08:52:13.820Z,13.55
2023-03-31T08:57:17.080Z,11.57
2023-03-31T08:59:46.223Z,12.32
2023-03-31T09:02:22.539Z,12.48
2023-03-31T09:05:18.469Z,12.52
2023-03-31T09:07:55.627Z,12.93
2023-03-31T09:10:36.851Z,13.45
2023-03-31T09:13:18.610Z,12.30
2023-03-31T09:15:51.751Z,12.55
2023-03-31T09:18:27.635Z,12.75
2023-03-31T09:21:03.845Z,14.70
2023-03-31T09:23:36.510Z,11.48
2023-03-31T09:26:07.247Z,12.10
2023-03-31T09:28:39.611Z,12.05
2023-03-31T09:31:16.148Z,10.90
2023-03-31T09:33:47.166Z,12.15
2023-03-31T09:36:19.258Z,12.70
2023-03-31T09:38:48.346Z,13.57
2023-03-31T09:41:17.328Z,11.75
2023-03-31T09:43:46.701Z,10.98
2023-03-31T09:46:21.503Z,10.57
2023-03-31T09:48:56.833Z,11.48
2023-03-31T09:51:30.638Z,11.70
2023-03-31T09:54:03.896Z,12.20
2023-03-31T09:56:46.385Z,12.25
2023-03-31T09:59:18.402Z,11.98
2023-03-31T10:01:48.271Z,9.57
2023-03-31T10:04:22.854Z,9.68
2023-03-31T10:06:53.968Z,9.65
2023-03-31T10:09:25.581Z,10.57
2023-03-31T10:11:58.959Z,9.30
2023-03-31T10:14:33.937Z,9.63
2023-03-31T10:17:07.407Z,9.82
2023-03-31T10:19:37.999Z,9.10
2023-03-31T10:22:16.161Z,9.45
2023-03-31T10:24:45.678Z,9.30
2023-03-31T10:27:23.902Z,9.60
2023-03-31T10:29:54.733Z,9.95
2023-03-31T10:32:28.768Z,10.27
2023-03-31T10:34:58.108Z,9.98
2023-03-31T10:37:29.700Z,9.80
2023-03-31T10:39:59.927Z,10.10
2023-03-31T10:42:29.336Z,10.48
2023-03-31T10:45:36.524Z,10.23
2023-03-31T10:48:06.345Z,9.75
2023-03-31T10:50:37.199Z,9.88
2023-03-31T10:53:08.437Z,10.73
2023-03-31T10:55:43.130Z,10.27
2023-03-31T10:58:23.786Z,11.13
2023-03-31T11:01:04.692Z,9.27
2023-03-31T11:03:51.404Z,9.70
2023-03-31T11:06:28.282Z,9.98
2023-03-31T11:09:10.870Z,10.35
2023-03-31T11:11:55.905Z,10.60
2023-03-31T11:14:36.416Z,8.80
2023-03-31T11:17:20.011Z,8.85
2023-03-31T11:19:59.471Z,9.15
2023-03-31T11:22:36.714Z,8.02
2023-03-31T11:25:24.912Z,9.82
2023-03-31T11:28:18.613Z,8.65
2023-03-31T11:30:51.949Z,8.88
2023-03-31T11:33:40.808Z,8.30
2023-03-31T11:36:22.337Z,7.78
2023-03-31T11:39:04.861Z,7.15
2023-03-31T11:41:38.090Z,10.50
2023-03-31T11:44:11.961Z,10.98
2023-03-31T11:46:50.590Z,10.45
2023-03-31T11:49:21.802Z,8.85
2023-03-31T11:51:56.904Z,8.27
2023-03-31T11:54:30.500Z,12.98
2023-03-31T11:57:04.977Z,10.63
2023-03-31T11:59:34.026Z,8.32
2023-03-31T12:02:11.120Z,7.78
2023-03-31T12:04:44.335Z,7.80
2023-03-31T12:07:25.007Z,7.38
2023-03-31T12:10:03.309Z,8.10
2023-03-31T12:12:36.612Z,7.35
2023-03-31T12:15:14.017Z,7.90
2023-03-31T12:17:46.841Z,7.50
2023-03-31T12:20:22.350Z,8.00
2023-03-31T12:22:51.085Z,8.77
2023-03-31T12:25:26.292Z,7.32
2023-03-31T12:27:56.678Z,8.00
2023-03-31T12:30:31.785Z,8.02
2023-03-31T12:33:05.639Z,8.13
2023-03-31T12:35:44.361Z,7.47
2023-03-31T12:38:23.354Z,7.90
2023-03-31T12:41:00.260Z,8.25
2023-03-31T12:43:58.032Z,9.40
2023-03-31T12:46:42.958Z,10.70
2023-03-31T12:49:24.645Z,9.45
2023-03-31T12:52:02.368Z,9.70
2023-03-31T12:54:55.848Z,9.80
2023-03-31T12:57:25.527Z,10.07
2023-03-31T13:00:21.116Z,8.48
2023-03-31T13:02:50.668Z,9.75
2023-03-31T13:05:50.477Z,9.90
2023-03-31T13:08:52.235Z,9.32
2023-03-31T13:11:21.342Z,9.02
2023-03-31T13:14:01.096Z,10.40
2023-03-31T13:16:33.693Z,10.98
2023-03-31T13:19:02.838Z,8.00
2023-03-31T13:21:31.296Z,8.63
2023-03-31T13:24:01.904Z,10.60
2023-03-31T13:26:48.069Z,8.70
2023-03-31T13:29:25.456Z,9.77
2023-03-31T13:32:21.320Z,10.30
2023-03-31T13:35:00.780Z,9.80
2023-03-31T13:37:58.143Z,12.40
2023-03-31T13:40:57.588Z,10.35
2023-03-31T13:44:00.047Z,8.35
2023-03-31T13:46:47.151Z,11.57
2023-03-31T13:49:39.082Z,9.63
2023-03-31T13:52:12.577Z,9.43
2023-03-31T13:55:06.176Z,10.05
2023-03-31T13:58:29.427Z,10.32
2023-03-31T14:01:17.843Z,9.40
2023-03-31T14:04:00.515Z,9.20
2023-03-31T14:06:37.228Z,10.70
2023-03-31T14:09:09.110Z,10.75
2023-03-31T14:11:37.528Z,11.77
2023-03-31T14:14:14.655Z,12.15
2023-03-31T14:16:46.926Z,9.18
2023-03-31T14:19:40.995Z,10.57
2023-03-31T14:22:20.727Z,9.50
2023-03-31T14:24:56.441Z,8.10
2023-03-31T14:27:39.753Z,9.15
2023-03-31T14:30:20.163Z,11.15
2023-03-31T14:33:04.086Z,8.52
2023-03-31T14:35:38.880Z,8.60
2023-03-31T14:38:14.426Z,8.25
2023-03-31T14:40:48.095Z,6.80
2023-03-31T14:43:21.459Z,9.60
2023-03-31T14:45:58.795Z,9.30
2023-03-31T14:48:28.921Z,7.15
2023-03-31T14:50:59.484Z,7.90
2023-03-31T14:53:29.297Z,8.32
2023-03-31T14:56:04.347Z,9.43
2023-03-31T14:58:35.840Z,8.38
2023-03-31T15:01:06.974Z,7.55
2023-03-31T15:03:36.507Z,6.85
2023-03-31T15:06:06.521Z,6.35
2023-03-31T15:08:38.272Z,7.82
2023-03-31T15:11:13.056Z,7.50
2023-03-31T15:13:56.806Z,7.10
2023-03-31T15:16:37.710Z,7.45
2023-03-31T15:19:13.138Z,9.88
2023-03-31T15:21:41.209Z,7.22
2023-03-31T15:24:13.335Z,8.20
2023-03-31T15:26:47.814Z,11.32
2023-03-31T15:29:21.161Z,6.78
2023-03-31T15:31:50.060Z,9.13
2023-03-31T15:34:27.928Z,8.48
2023-03-31T15:36:57.890Z,9.05
2023-03-31T15:39:31.522Z,6.75
2023-03-31T15:42:02.102Z,9.40
2023-03-31T15:44:44.820Z,8.65
2023-03-31T15:47:18.990Z,9.30
2023-03-31T15:49:53.208Z,10.68
2023-03-31T15:52:36.130Z,9.80
2023-03-31T15:55:27.309Z,9.75
2023-03-31T15:57:57.413Z,7.82
2023-03-31T16:00:45.672Z,6.38
2023-03-31T16:03:18.180Z,9.02
2023-03-31T16:05:54.956Z,10.30
2023-03-31T16:08:27.389Z,9.82
2023-03-31T16:11:03.295Z,9.10
2023-03-31T16:13:33.678Z,9.55
2023-03-31T16:16:02.246Z,10.43
2023-03-31T16:18:34.708Z,10.40
2023-03-31T16:21:06.299Z,9.70
2023-03-31T16:23:38.743Z,10.90
2023-03-31T16:26:09.000Z,9.82
2023-03-31T16:28:39.284Z,9.10
2023-03-31T16:31:31.259Z,8.90
2023-03-31T16:33:59.558Z,10.95
2023-03-31T16:36:28.354Z,8.32
2023-03-31T16:38:58.160Z,8.45
2023-03-31T16:41:29.660Z,8.65
2023-03-31T16:43:57.711Z,7.40
2023-03-31T16:46:26.267Z,8.98
2023-03-31T16:48:54.755Z,7.50
2023-03-31T16:51:23.449Z,8.43
2023-03-31T16:53:51.787Z,6.75
2023-03-31T16:56:21.095Z,8.95
2023-03-31T16:58:50.764Z,9.82
2023-03-31T17:01:18.796Z,8.10
2023-03-31T17:03:48.803Z,8.65
2023-03-31T17:06:16.984Z,8.23
2023-03-31T17:08:45.810Z,9.20
2023-03-31T17:11:15.083Z,10.45
2023-03-31T17:13:44.637Z,10.70
2023-03-31T17:19:02.625Z,8.57
2023-03-31T17:21:30.964Z,8.25
2023-03-31T17:24:01.561Z,8.55
2023-03-31T17:26:30.814Z,8.30
2023-03-31T17:29:00.664Z,10.52
2023-03-31T17:31:30.714Z,10.43
2023-03-31T17:33:59.645Z,11.18
2023-03-31T17:36:27.863Z,10.52
2023-03-31T17:38:56.249Z,6.57
2023-03-31T17:41:24.524Z,10.70
2023-03-31T17:43:52.777Z,9.45
2023-03-31T17:46:20.890Z,10.18
2023-03-31T17:48:50.843Z,10.82
2023-03-31T17:51:20.121Z,10.48
2023-03-31T17:53:49.050Z,9.32
2023-03-31T17:56:18.378Z,11.00
2023-03-31T17:58:46.928Z,9.07
2023-03-31T18:01:15.562Z,8.48
2023-03-31T18:03:47.118Z,9.13
2023-03-31T18:06:19.926Z,10.18
2023-03-31T18:08:51.302Z,9.85
2023-03-31T18:11:22.689Z,8.02
2023-03-31T18:13:53.936Z,8.63
2023-03-31T18:16:25.331Z,8.65
2023-03-31T18:18:56.542Z,9.18
2023-03-31T18:21:30.041Z,10.82
2023-03-31T18:24:01.140Z,9.32
2023-03-31T18:26:32.470Z,9.05
2023-03-31T18:29:06.685Z,8.50
2023-03-31T18:31:37.627Z,8.57
2023-03-31T18:34:09.088Z,9.05
2023-03-31T18:36:41.568Z,10.05
2023-03-31T18:39:12.629Z,8.73
2023-03-31T18:41:48.096Z,8.85
2023-03-31T18:44:19.311Z,9.88
2023-03-31T18:46:50.321Z,9.68
2023-03-31T18:49:22.016Z,9.05
2023-03-31T18:51:54.891Z,8.80
2023-03-31T18:54:26.278Z,8.38
2023-03-31T18:56:57.589Z,11.20
2023-03-31T18:59:29.069Z,9.32
2023-03-31T19:02:00.418Z,8.13
2023-03-31T19:04:32.223Z,8.45
2023-03-31T19:07:04.682Z,8.30
2023-03-31T19:09:35.248Z,8.20
2023-03-31T19:12:06.715Z,8.07
2023-03-31T19:14:37.960Z,8.70
2023-03-31T19:17:09.347Z,8.15
2023-03-31T19:19:40.152Z,10.68
2023-03-31T19:22:12.713Z,10.50
2023-03-31T19:24:43.181Z,9.70
2023-03-31T19:27:14.693Z,9.90
2023-03-31T19:29:45.553Z,9.85
2023-03-31T19:32:16.596Z,8.10
2023-03-31T19:34:50.717Z,10.35
2023-03-31T19:37:23.898Z,8.70
2023-03-31T19:39:54.914Z,7.47
2023-03-31T19:42:25.860Z,9.25
2023-03-31T19:44:56.875Z,8.45
2023-03-31T19:47:27.945Z,8.90
2023-03-31T19:49:58.299Z,8.27
2023-03-31T19:52:31.400Z,8.85
2023-03-31T19:55:00.249Z,7.78
2023-03-31T19:57:29.006Z,9.15
2023-03-31T19:59:57.198Z,7.60
2023-03-31T20:02:25.502Z,9.07
2023-03-31T20:04:54.431Z,9.68
2023-03-31T20:07:23.213Z,8.35
2023-03-31T20:09:52.942Z,8.60
2023-03-31T20:12:21.148Z,8.80
2023-03-31T20:14:49.242Z,8.57
2023-03-31T20:17:17.672Z,7.38
2023-03-31T20:19:46.285Z,10.07
2023-03-31T20:22:14.398Z,10.15
2023-03-31T20:24:42.392Z,7.50
2023-03-31T20:27:14.185Z,8.50
2023-03-31T20:29:45.316Z,10.00
2023-03-31T20:32:18.812Z,11.02
2023-03-31T20:37:20.680Z,8.88
2023-03-31T20:39:51.791Z,8.32
2023-03-31T20:42:24.392Z,7.78
2023-03-31T20:44:56.209Z,7.57
2023-03-31T20:47:28.977Z,7.40
2023-03-31T20:50:03.324Z,9.10
2023-03-31T20:52:34.815Z,7.47
2023-03-31T20:55:08.253Z,8.20
2023-03-31T20:57:40.857Z,8.00
2023-03-31T21:00:13.040Z,11.05
2023-03-31T21:02:44.224Z,11.15
2023-03-31T21:05:18.545Z,8.85
2023-03-31T21:07:50.872Z,9.90
2023-03-31T21:10:22.572Z,9.15
2023-03-31T21:12:55.724Z,8.95
2023-03-31T21:15:26.627Z,8.38
2023-03-31T21:17:58.104Z,9.27
2023-03-31T21:20:32.585Z,9.13
2023-03-31T21:23:04.210Z,10.00
2023-03-31T21:25:37.249Z,8.82
2023-03-31T21:28:10.135Z,10.88
2023-03-31T21:30:41.000Z,8.82
2023-03-31T21:33:12.216Z,9.88
2023-03-31T21:35:43.513Z,7.78
2023-03-31T21:38:15.032Z,8.52
2023-03-31T21:40:46.212Z,8.60
2023-03-31T21:43:18.842Z,8.82
2023-03-31T21:45:50.875Z,9.30
2023-03-31T21:48:28.146Z,9.43
2023-03-31T21:51:01.324Z,6.47
2023-03-31T21:53:33.475Z,6.82
2023-03-31T21:56:05.195Z,7.95
2023-03-31T21:58:38.460Z,8.90
2023-03-31T22:03:43.019Z,9.80
2023-03-31T22:06:14.199Z,9.52
2023-03-31T22:08:46.464Z,8.98
2023-03-31T22:11:18.211Z,7.65
2023-03-31T22:13:51.900Z,8.27
2023-03-31T22:16:24.955Z,8.00
2023-03-31T22:18:57.670Z,9.68
2023-03-31T22:21:44.385Z,8.30
2023-03-31T22:24:15.577Z,6.10
2023-03-31T22:26:47.063Z,6.88
2023-03-31T22:29:19.858Z,9.15
2023-03-31T22:31:50.651Z,7.72
2023-03-31T22:34:22.423Z,7.63
2023-03-31T22:36:54.504Z,7.57
2023-03-31T22:39:25.800Z,7.65
2023-03-31T22:41:58.866Z,8.20
2023-03-31T22:44:31.970Z,7.20
2023-03-31T22:47:04.531Z,8.07
2023-03-31T22:49:36.684Z,9.13
2023-03-31T22:52:08.951Z,7.07
2023-03-31T22:54:41.004Z,6.47
2023-03-31T22:57:12.596Z,7.72
2023-03-31T22:59:46.400Z,8.63
2023-03-31T23:02:17.698Z,8.38
2023-03-31T23:04:48.802Z,8.02
2023-03-31T23:07:22.619Z,9.05
2023-03-31T23:09:53.762Z,8.02
2023-03-31T23:12:27.575Z,7.45
2023-03-31T23:15:01.915Z,6.13
2023-03-31T23:17:34.035Z,5.88
2023-03-31T23:20:07.453Z,6.03
2023-03-31T23:25:11.029Z,5.93
2023-03-31T23:30:16.997Z,5.72
2023-03-31T23:32:48.659Z,6.15
2023-03-31T23:35:21.259Z,6.75
2023-03-31T23:37:52.966Z,6.40
2023-03-31T23:40:28.252Z,6.15
2023-03-31T23:42:59.410Z,7.07
2023-03-31T23:45:33.004Z,5.55
2023-03-31T23:48:04.480Z,5.28
2023-03-31T23:50:35.994Z,6.18
2023-03-31T23:53:10.062Z,5.25
2023-03-31T23:55:41.305Z,5.18
2023-03-31T23:58:12.287Z,5.80
